sensor_id;sensor_type;location;lat;lon;timestamp;pressure;altitude;pressure_sealevel;temperature;humidity
75447;BME280;64024;55.820;37.574;2023-04-01T00:01:40;97391.59;;;17.87;46.35
75447;BME280;64024;55.820;37.574;2023-04-01T00:04:06;97396.19;;;17.86;46.46
75447;BME280;64024;55.820;37.574;2023-04-01T00:06:32;97389.72;;;17.87;46.47
75447;BME280;64024;55.820;37.574;2023-04-01T00:08:57;97395.38;;;17.86;46.38
75447;BME280;64024;55.820;37.574;2023-04-01T00:11:23;97391.59;;;17.87;46.44
75447;BME280;64024;55.820;37.574;2023-04-01T00:13:49;97397.28;;;17.85;46.16
75447;BME280;64024;55.820;37.574;2023-04-01T00:16:15;97392.69;;;17.86;46.35
75447;BME280;64024;55.820;37.574;2023-04-01T00:18:40;97394.59;;;17.85;46.38
75447;BME280;64024;55.820;37.574;2023-04-01T00:21:06;97394.59;;;17.85;46.33
75447;BME280;64024;55.820;37.574;2023-04-01T00:23:32;97385.44;;;17.86;46.51
75447;BME280;64024;55.820;37.574;2023-04-01T00:26:02;97388.63;;;17.88;46.41
75447;BME280;64024;55.820;37.574;2023-04-01T00:28:28;97384.84;;;17.89;46.32
75447;BME280;64024;55.820;37.574;2023-04-01T00:30:54;97389.09;;;17.91;46.45
75447;BME280;64024;55.820;37.574;2023-04-01T00:33:20;97380.44;;;17.94;46.47
75447;BME280;64024;55.820;37.574;2023-04-01T00:35:46;97379.34;;;17.95;46.55
75447;BME280;64024;55.820;37.574;2023-04-01T00:38:12;97381.44;;;17.98;46.31
75447;BME280;64024;55.820;37.574;2023-04-01T00:40:41;97376.06;;;17.98;46.11
75447;BME280;64024;55.820;37.574;2023-04-01T00:43:19;97380.06;;;18.00;46.11
75447;BME280;64024;55.820;37.574;2023-04-01T00:45:48;97375.75;;;17.99;45.88
75447;BME280;64024;55.820;37.574;2023-04-01T00:48:17;97381.44;;;17.98;45.95
75447;BME280;64024;55.820;37.574;2023-04-01T00:50:50;97368.00;;;17.98;46.01
75447;BME280;64024;55.820;37.574;2023-04-01T00:53:19;97373.38;;;17.98;46.06
75447;BME280;64024;55.820;37.574;2023-04-01T00:56:01;97377.97;;;17.97;46.15
75447;BME280;64024;55.820;37.574;2023-04-01T00:58:31;97373.69;;;17.96;46.02
75447;BME280;64024;55.820;37.574;2023-04-01T01:00:59;97375.59;;;17.96;46.09
75447;BME280;64024;55.820;37.574;2023-04-01T01:03:25;97370.50;;;17.94;46.19
75447;BME280;64024;55.820;37.574;2023-04-01T01:11:29;97370.00;;;17.92;46.21
75447;BME280;64024;55.820;37.574;2023-04-01T01:14:30;97372.19;;;17.90;46.14
75447;BME280;64024;55.820;37.574;2023-04-01T01:16:58;97374.09;;;17.89;46.12
75447;BME280;64024;55.820;37.574;2023-04-01T01:19:48;97380.56;;;17.88;46.25
75447;BME280;64024;55.820;37.574;2023-04-01T01:27:39;97375.31;;;17.83;46.10
75447;BME280;64024;55.820;37.574;2023-04-01T01:33:18;97381.75;;;17.82;46.42
75447;BME280;64024;55.820;37.574;2023-04-01T01:35:54;97387.44;;;17.81;46.11
75447;BME280;64024;55.820;37.574;2023-04-01T01:38:32;97381.56;;;17.79;46.28
75447;BME280;64024;55.820;37.574;2023-04-01T01:41:00;97379.16;;;17.77;46.10
75447;BME280;64024;55.820;37.574;2023-04-01T01:43:31;97374.13;;;17.76;46.02
75447;BME280;64024;55.820;37.574;2023-04-01T01:46:01;97373.31;;;17.75;46.14
75447;BME280;64024;55.820;37.574;2023-04-01T01:48:31;97375.19;;;17.75;46.24
75447;BME280;64024;55.820;37.574;2023-04-01T01:50:58;97376.25;;;17.74;46.24
75447;BME280;64024;55.820;37.574;2023-04-01T01:53:24;97373.88;;;17.72;46.10
75447;BME280;64024;55.820;37.574;2023-04-01T01:55:50;97381.94;;;17.72;46.27
75447;BME280;64024;55.820;37.574;2023-04-01T02:00:55;97383.84;;;17.72;46.21
75447;BME280;64024;55.820;37.574;2023-04-01T02:03:24;97384.13;;;17.70;46.18
75447;BME280;64024;55.820;37.574;2023-04-01T02:05:55;97382.53;;;17.69;46.25
75447;BME280;64024;55.820;37.574;2023-04-01T02:08:28;97379.06;;;17.69;46.29
75447;BME280;64024;55.820;37.574;2023-04-01T02:10:58;97381.22;;;17.67;46.34
75447;BME280;64024;55.820;37.574;2023-04-01T02:16:02;97385.81;;;17.66;46.27
75447;BME280;64024;55.820;37.574;2023-04-01T02:18:36;97389.59;;;17.65;46.24
75447;BME280;64024;55.820;37.574;2023-04-01T02:21:04;97394.19;;;17.64;46.33
75447;BME280;64024;55.820;37.574;2023-04-01T02:23:33;97393.38;;;17.64;46.33
75447;BME280;64024;55.820;37.574;2023-04-01T02:26:02;97395.28;;;17.63;46.21
75447;BME280;64024;55.820;37.574;2023-04-01T02:28:31;97392.09;;;17.61;46.30
75447;BME280;64024;55.820;37.574;2023-04-01T02:30:59;97392.88;;;17.62;46.33
75447;BME280;64024;55.820;37.574;2023-04-01T02:33:28;97390.50;;;17.60;46.32
75447;BME280;64024;55.820;37.574;2023-04-01T02:35:55;97397.44;;;17.61;46.23
75447;BME280;64024;55.820;37.574;2023-04-01T02:38:21;97400.44;;;17.60;46.20
75447;BME280;64024;55.820;37.574;2023-04-01T02:40:50;97400.75;;;17.58;46.17
75447;BME280;64024;55.820;37.574;2023-04-01T02:43:22;97401.56;;;17.59;46.32
75447;BME280;64024;55.820;37.574;2023-04-01T02:45:47;97403.44;;;17.58;46.33
75447;BME280;64024;55.820;37.574;2023-04-01T02:48:13;97398.06;;;17.58;46.24
75447;BME280;64024;55.820;37.574;2023-04-01T02:50:39;97407.19;;;17.57;46.54
75447;BME280;64024;55.820;37.574;2023-04-01T02:53:05;97402.94;;;17.56;46.33
75447;BME280;64024;55.820;37.574;2023-04-01T02:55:32;97399.44;;;17.56;46.14
75447;BME280;64024;55.820;37.574;2023-04-01T02:57:58;97405.63;;;17.56;46.27
75447;BME280;64024;55.820;37.574;2023-04-01T03:00:25;97406.72;;;17.55;46.35
75447;BME280;64024;55.820;37.574;2023-04-01T03:02:52;97397.06;;;17.54;46.44
75447;BME280;64024;55.820;37.574;2023-04-01T03:05:19;97398.94;;;17.54;46.37
75447;BME280;64024;55.820;37.574;2023-04-01T03:07:45;97399.44;;;17.56;46.32
75447;BME280;64024;55.820;37.574;2023-04-01T03:10:10;97402.44;;;17.54;46.32
75447;BME280;64024;55.820;37.574;2023-04-01T03:12:36;97397.06;;;17.54;46.31
75447;BME280;64024;55.820;37.574;2023-04-01T03:15:02;97404.31;;;17.54;46.10
75447;BME280;64024;55.820;37.574;2023-04-01T03:17:28;97403.81;;;17.52;46.27
75447;BME280;64024;55.820;37.574;2023-04-01T03:19:54;97412.97;;;17.51;46.41
75447;BME280;64024;55.820;37.574;2023-04-01T03:22:20;97416.47;;;17.51;46.48
75447;BME280;64024;55.820;37.574;2023-04-01T03:24:47;97418.34;;;17.51;46.72
75447;BME280;64024;55.820;37.574;2023-04-01T03:27:13;97418.34;;;17.51;46.62
75447;BME280;64024;55.820;37.574;2023-04-01T03:29:39;97416.47;;;17.51;46.96
75447;BME280;64024;55.820;37.574;2023-04-01T03:32:05;97421.84;;;17.51;46.93
75447;BME280;64024;55.820;37.574;2023-04-01T03:34:31;97422.31;;;17.53;46.90
75447;BME280;64024;55.820;37.574;2023-04-01T03:36:57;97422.31;;;17.53;47.01
75447;BME280;64024;55.820;37.574;2023-04-01T03:39:24;97425.78;;;17.54;47.11
75447;BME280;64024;55.820;37.574;2023-04-01T03:41:50;97426.63;;;17.54;47.19
75447;BME280;64024;55.820;37.574;2023-04-01T03:44:16;97432.78;;;17.55;47.24
75447;BME280;64024;55.820;37.574;2023-04-01T03:46:42;97437.06;;;17.56;47.36
75447;BME280;64024;55.820;37.574;2023-04-01T03:49:10;97439.75;;;17.56;47.15
75447;BME280;64024;55.820;37.574;2023-04-01T03:51:38;97440.53;;;17.56;47.55
75447;BME280;64024;55.820;37.574;2023-04-01T03:54:05;97444.00;;;17.57;47.42
75447;BME280;64024;55.820;37.574;2023-04-01T03:56:31;97447.50;;;17.57;47.27
75447;BME280;64024;55.820;37.574;2023-04-01T03:58:58;97454.47;;;17.58;47.63
75447;BME280;64024;55.820;37.574;2023-04-01T04:01:24;97451.78;;;17.58;47.65
75447;BME280;64024;55.820;37.574;2023-04-01T04:03:50;97456.06;;;17.59;47.65
75447;BME280;64024;55.820;37.574;2023-04-01T04:06:18;97460.66;;;17.59;47.72
75447;BME280;64024;55.820;37.574;2023-04-01T04:08:44;97456.84;;;17.60;47.78
75447;BME280;64024;55.820;37.574;2023-04-01T04:11:10;97458.75;;;17.59;47.58
75447;BME280;64024;55.820;37.574;2023-04-01T04:13:36;97469.19;;;17.61;47.60
75447;BME280;64024;55.820;37.574;2023-04-01T04:16:03;97460.66;;;17.59;47.41
75447;BME280;64024;55.820;37.574;2023-04-01T04:18:29;97469.50;;;17.59;47.62
75447;BME280;64024;55.820;37.574;2023-04-01T04:20:55;97474.88;;;17.59;47.56
75447;BME280;64024;55.820;37.574;2023-04-01T04:23:21;97468.69;;;17.59;47.65
75447;BME280;64024;55.820;37.574;2023-04-01T04:25:58;97468.41;;;17.60;47.61
75447;BME280;64024;55.820;37.574;2023-04-01T04:28:26;97470.28;;;17.60;47.40
75447;BME280;64024;55.820;37.574;2023-04-01T04:30:52;97478.94;;;17.71;47.53
75447;BME280;64024;55.820;37.574;2023-04-01T04:33:18;97476.34;;;17.65;47.27
75447;BME280;64024;55.820;37.574;2023-04-01T04:35:44;97476.97;;;17.62;47.35
75447;BME280;64024;55.820;37.574;2023-04-01T04:38:10;97476.16;;;17.62;47.37
75447;BME280;64024;55.820;37.574;2023-04-01T04:40:36;97478.34;;;17.60;47.22
75447;BME280;64024;55.820;37.574;2023-04-01T04:43:03;97479.94;;;17.61;47.25
75447;BME280;64024;55.820;37.574;2023-04-01T04:45:29;97481.81;;;17.60;47.21
75447;BME280;64024;55.820;37.574;2023-04-01T04:47:56;97488.78;;;17.61;47.13
75447;BME280;64024;55.820;37.574;2023-04-01T04:50:22;97487.19;;;17.60;47.26
75447;BME280;64024;55.820;37.574;2023-04-01T04:52:49;97491.47;;;17.61;47.03
75447;BME280;64024;55.820;37.574;2023-04-01T04:55:15;97484.50;;;17.60;47.42
75447;BME280;64024;55.820;37.574;2023-04-01T04:57:41;97488.78;;;17.61;47.37
75447;BME280;64024;55.820;37.574;2023-04-01T05:00:07;97494.94;;;17.62;47.37
75447;BME280;64024;55.820;37.574;2023-04-01T05:02:33;97507.31;;;17.63;47.44
75447;BME280;64024;55.820;37.574;2023-04-01T05:04:59;97508.09;;;17.63;47.57
75447;BME280;64024;55.820;37.574;2023-04-01T05:07:26;97512.38;;;17.64;47.63
75447;BME280;64024;55.820;37.574;2023-04-01T05:09:51;97513.16;;;17.65;47.41
75447;BME280;64024;55.820;37.574;2023-04-01T05:12:17;97518.22;;;17.67;47.48
75447;BME280;64024;55.820;37.574;2023-04-01T05:14:43;97511.00;;;17.67;47.46
75447;BME280;64024;55.820;37.574;2023-04-01T05:17:10;97515.56;;;17.67;47.35
75447;BME280;64024;55.820;37.574;2023-04-01T05:19:37;97517.97;;;17.68;47.45
75447;BME280;64024;55.820;37.574;2023-04-01T05:22:03;97519.53;;;17.69;47.36
75447;BME280;64024;55.820;37.574;2023-04-01T05:24:30;97521.13;;;17.70;47.52
75447;BME280;64024;55.820;37.574;2023-04-01T05:26:56;97523.53;;;17.72;47.43
75447;BME280;64024;55.820;37.574;2023-04-01T05:29:24;97517.06;;;17.73;47.14
75447;BME280;64024;55.820;37.574;2023-04-01T05:31:50;97520.28;;;17.75;47.34
75447;BME280;64024;55.820;37.574;2023-04-01T05:34:17;97524.56;;;17.76;47.43
75447;BME280;64024;55.820;37.574;2023-04-01T05:36:43;97518.09;;;17.77;47.24
75447;BME280;64024;55.820;37.574;2023-04-01T05:39:10;97519.69;;;17.78;47.22
75447;BME280;64024;55.820;37.574;2023-04-01T05:41:36;97516.72;;;17.79;47.06
75447;BME280;64024;55.820;37.574;2023-04-01T05:44:03;97519.09;;;17.81;47.13
75447;BME280;64024;55.820;37.574;2023-04-01T05:46:30;97526.84;;;17.82;47.09
75447;BME280;64024;55.820;37.574;2023-04-01T05:48:57;97524.97;;;17.83;47.05
75447;BME280;64024;55.820;37.574;2023-04-01T05:51:23;97529.75;;;17.86;46.92
75447;BME280;64024;55.820;37.574;2023-04-01T05:53:49;97530.25;;;17.88;47.17
75447;BME280;64024;55.820;37.574;2023-04-01T05:56:15;97530.75;;;17.90;47.09
75447;BME280;64024;55.820;37.574;2023-04-01T05:58:41;97534.75;;;17.93;47.02
75447;BME280;64024;55.820;37.574;2023-04-01T06:01:09;97535.22;;;17.95;47.01
75447;BME280;64024;55.820;37.574;2023-04-01T06:03:36;97544.59;;;17.97;46.89
75447;BME280;64024;55.820;37.574;2023-04-01T06:06:03;97545.09;;;17.99;46.68
75447;BME280;64024;55.820;37.574;2023-04-01T06:08:32;97543.69;;;18.02;46.89
75447;BME280;64024;55.820;37.574;2023-04-01T06:22:00;97543.09;;;18.19;46.87
75447;BME280;64024;55.820;37.574;2023-04-01T06:30:35;97544.00;;;18.28;46.98
75447;BME280;64024;55.820;37.574;2023-04-01T06:36:42;97554.06;;;18.36;46.94
75447;BME280;64024;55.820;37.574;2023-04-01T06:42:24;97566.31;;;18.42;47.22
75447;BME280;64024;55.820;37.574;2023-04-01T06:51:06;97566.63;;;18.54;47.11
75447;BME280;64024;55.820;37.574;2023-04-01T06:53:45;97569.50;;;18.58;47.17
75447;BME280;64024;55.820;37.574;2023-04-01T06:56:17;97567.91;;;18.71;46.80
75447;BME280;64024;55.820;37.574;2023-04-01T07:01:20;97580.56;;;18.70;46.72
75447;BME280;64024;55.820;37.574;2023-04-01T07:09:25;97582.84;;;18.77;46.42
75447;BME280;64024;55.820;37.574;2023-04-01T07:11:54;97583.34;;;18.79;46.41
75447;BME280;64024;55.820;37.574;2023-04-01T07:14:32;97580.84;;;18.82;46.30
75447;BME280;64024;55.820;37.574;2023-04-01T07:17:08;97579.13;;;18.86;46.59
75447;BME280;64024;55.820;37.574;2023-04-01T07:19:51;97578.25;;;18.91;46.51
75447;BME280;64024;55.820;37.574;2023-04-01T07:22:35;97583.50;;;18.96;46.39
75447;BME280;64024;55.820;37.574;2023-04-01T07:25:23;97586.41;;;19.00;46.19
75447;BME280;64024;55.820;37.574;2023-04-01T07:27:53;97587.66;;;19.02;46.27
75447;BME280;64024;55.820;37.574;2023-04-01T07:30:23;97590.25;;;19.07;46.25
75447;BME280;64024;55.820;37.574;2023-04-01T07:33:11;97585.84;;;19.11;46.16
75447;BME280;64024;55.820;37.574;2023-04-01T07:36:03;97586.53;;;19.17;46.26
75447;BME280;64024;55.820;37.574;2023-04-01T07:38:51;97589.44;;;19.21;46.02
75447;BME280;64024;55.820;37.574;2023-04-01T07:41:52;97592.78;;;19.26;45.89
75447;BME280;64024;55.820;37.574;2023-04-01T07:44:24;97595.75;;;19.38;45.75
75447;BME280;64024;55.820;37.574;2023-04-01T07:52:40;97603.50;;;19.40;45.71
75447;BME280;64024;55.820;37.574;2023-04-01T07:55:12;97612.09;;;19.42;45.79
75447;BME280;64024;55.820;37.574;2023-04-01T07:57:52;97603.41;;;19.45;45.78
75447;BME280;64024;55.820;37.574;2023-04-01T08:00:48;97607.09;;;19.49;45.70
75447;BME280;64024;55.820;37.574;2023-04-01T08:03:38;97611.25;;;19.55;45.78
75447;BME280;64024;55.820;37.574;2023-04-01T08:06:26;97622.53;;;19.57;45.59
75447;BME280;64024;55.820;37.574;2023-04-01T08:09:10;97625.69;;;19.59;45.73
75447;BME280;64024;55.820;37.574;2023-04-01T08:11:54;97625.91;;;19.63;45.41
75447;BME280;64024;55.820;37.574;2023-04-01T08:17:09;97630.69;;;19.66;45.44
75447;BME280;64024;55.820;37.574;2023-04-01T08:19:59;97629.78;;;19.71;45.50
75447;BME280;64024;55.820;37.574;2023-04-01T08:25:05;97624.84;;;19.73;45.38
75447;BME280;64024;55.820;37.574;2023-04-01T08:27:37;97628.06;;;19.75;45.24
75447;BME280;64024;55.820;37.574;2023-04-01T08:30:28;97622.84;;;19.78;45.33
75447;BME280;64024;55.820;37.574;2023-04-01T08:33:10;97625.69;;;19.82;45.23
75447;BME280;64024;55.820;37.574;2023-04-01T08:36:02;97630.19;;;19.86;44.87
75447;BME280;64024;55.820;37.574;2023-04-01T08:38:32;97634.16;;;19.89;45.10
75447;BME280;64024;55.820;37.574;2023-04-01T08:58:30;97645.25;;;19.88;40.55
75447;BME280;64024;55.820;37.574;2023-04-01T09:12:52;97666.53;;;19.67;39.19
75447;BME280;64024;55.820;37.574;2023-04-01T09:21:02;97663.16;;;19.47;38.93
75447;BME280;64024;55.820;37.574;2023-04-01T09:26:49;97666.38;;;19.35;38.26
75447;BME280;64024;55.820;37.574;2023-04-01T09:35:10;97664.03;;;19.20;38.63
75447;BME280;64024;55.820;37.574;2023-04-01T09:38:08;97675.41;;;19.17;38.56
75447;BME280;64024;55.820;37.574;2023-04-01T09:52:30;97679.31;;;18.97;38.44
75447;BME280;64024;55.820;37.574;2023-04-01T10:15:00;97698.97;;;18.70;38.50
75447;BME280;64024;55.820;37.574;2023-04-01T10:28:29;97711.47;;;18.61;38.69
75447;BME280;64024;55.820;37.574;2023-04-01T11:26:10;97735.09;;;18.50;38.31
75447;BME280;64024;55.820;37.574;2023-04-01T11:39:31;97733.78;;;18.48;38.87
75447;BME280;64024;55.820;37.574;2023-04-01T11:42:11;97735.09;;;18.50;38.85
75447;BME280;64024;55.820;37.574;2023-04-01T11:45:32;97741.56;;;18.49;38.83
75447;BME280;64024;55.820;37.574;2023-04-01T12:01:51;97746.88;;;18.54;39.38
75447;BME280;64024;55.820;37.574;2023-04-01T12:10:20;97749.47;;;18.59;39.63
75447;BME280;64024;55.820;37.574;2023-04-01T12:13:04;97753.75;;;18.60;39.65
75447;BME280;64024;55.820;37.574;2023-04-01T12:16:09;97753.44;;;18.62;39.74
75447;BME280;64024;55.820;37.574;2023-04-01T12:18:50;97753.44;;;18.62;40.11
75447;BME280;64024;55.820;37.574;2023-04-01T12:33:10;97762.75;;;18.70;40.35
75447;BME280;64024;55.820;37.574;2023-04-01T12:44:29;97762.75;;;18.70;40.40
75447;BME280;64024;55.820;37.574;2023-04-01T12:50:26;97766.75;;;18.72;40.24
75447;BME280;64024;55.820;37.574;2023-04-01T12:55:45;97773.72;;;18.73;40.48
75447;BME280;64024;55.820;37.574;2023-04-01T12:58:41;97781.78;;;18.73;40.55
75447;BME280;64024;55.820;37.574;2023-04-01T13:09:41;97787.97;;;18.74;39.23
75447;BME280;64024;55.820;37.574;2023-04-01T13:18:02;97783.44;;;18.69;38.77
75447;BME280;64024;55.820;37.574;2023-04-01T13:26:03;97791.63;;;18.64;38.09
75447;BME280;64024;55.820;37.574;2023-04-01T13:29:01;97795.69;;;18.61;37.90
75447;BME280;64024;55.820;37.574;2023-04-01T13:35:15;97799.28;;;18.57;37.47
75447;BME280;64024;55.820;37.574;2023-04-01T13:43:23;97807.00;;;18.45;37.36
75447;BME280;64024;55.820;37.574;2023-04-01T13:46:09;97803.53;;;18.44;36.91
75447;BME280;64024;55.820;37.574;2023-04-01T13:54:13;97817.63;;;18.36;36.87
75447;BME280;64024;55.820;37.574;2023-04-01T14:07:40;97828.66;;;18.21;36.39
75447;BME280;64024;55.820;37.574;2023-04-01T14:10:43;97827.63;;;18.17;36.54
75447;BME280;64024;55.820;37.574;2023-04-01T14:22:25;97840.72;;;18.04;36.83
75447;BME280;64024;55.820;37.574;2023-04-01T14:28:06;97841.63;;;17.95;37.22
75447;BME280;64024;55.820;37.574;2023-04-01T14:30:50;97848.41;;;17.92;37.25
75447;BME280;64024;55.820;37.574;2023-04-01T14:44:24;97838.88;;;17.81;38.40
75447;BME280;64024;55.820;37.574;2023-04-01T14:50:27;97843.59;;;17.89;39.22
75447;BME280;64024;55.820;37.574;2023-04-01T14:58:15;97872.31;;;17.94;39.04
75447;BME280;64024;55.820;37.574;2023-04-01T15:03:30;97875.28;;;17.92;38.81
75447;BME280;64024;55.820;37.574;2023-04-01T15:06:10;97886.47;;;17.99;38.96
75447;BME280;64024;55.820;37.574;2023-04-01T15:08:53;97877.69;;;17.94;38.88
75447;BME280;64024;55.820;37.574;2023-04-01T15:14:40;97897.44;;;17.84;39.31
75447;BME280;64024;55.820;37.574;2023-04-01T15:17:02;97896.13;;;17.81;39.07
75447;BME280;64024;55.820;37.574;2023-04-01T15:22:40;97904.78;;;17.73;39.43
75447;BME280;64024;55.820;37.574;2023-04-01T15:42:25;97916.63;;;17.48;40.34
75447;BME280;64024;55.820;37.574;2023-04-01T16:01:23;97928.78;;;17.40;42.00
75447;BME280;64024;55.820;37.574;2023-04-01T16:03:57;97925.28;;;17.40;42.19
75447;BME280;64024;55.820;37.574;2023-04-01T16:07:02;97934.69;;;17.43;42.86
75447;BME280;64024;55.820;37.574;2023-04-01T16:09:43;97926.31;;;17.44;43.12
75447;BME280;64024;55.820;37.574;2023-04-01T16:15:28;97935.13;;;17.50;43.80
75447;BME280;64024;55.820;37.574;2023-04-01T16:21:12;97947.13;;;17.57;43.95
75447;BME280;64024;55.820;37.574;2023-04-01T16:23:59;97950.84;;;17.61;44.03
75447;BME280;64024;55.820;37.574;2023-04-01T16:31:49;97963.41;;;17.71;44.46
75447;BME280;64024;55.820;37.574;2023-04-01T16:34:24;97960.94;;;17.75;44.65
75447;BME280;64024;55.820;37.574;2023-04-01T16:37:07;97961.19;;;17.78;44.81
75447;BME280;64024;55.820;37.574;2023-04-01T16:45:33;97969.63;;;17.91;45.03
75447;BME280;64024;55.820;37.574;2023-04-01T16:48:13;97981.41;;;17.95;45.09
75447;BME280;64024;55.820;37.574;2023-04-01T16:50:52;97981.66;;;17.98;45.24
75447;BME280;64024;55.820;37.574;2023-04-01T16:54:36;97973.81;;;18.02;45.42
75447;BME280;64024;55.820;37.574;2023-04-01T16:56:43;97974.84;;;18.06;45.28
75447;BME280;64024;55.820;37.574;2023-04-01T17:02:02;97983.94;;;18.10;45.48
75447;BME280;64024;55.820;37.574;2023-04-01T17:21:29;97983.09;;;18.33;46.39
75447;BME280;64024;55.820;37.574;2023-04-01T17:26:42;97985.94;;;18.42;46.43
75447;BME280;64024;55.820;37.574;2023-04-01T17:31:55;97980.72;;;18.51;46.42
75447;BME280;64024;55.820;37.574;2023-04-01T17:34:57;97983.84;;;18.58;46.56
75447;BME280;64024;55.820;37.574;2023-04-01T17:53:52;97999.56;;;18.70;46.69
75447;BME280;64024;55.820;37.574;2023-04-01T17:56:32;98001.19;;;18.71;46.48
75447;BME280;64024;55.820;37.574;2023-04-01T18:01:59;98005.19;;;18.73;46.76
75447;BME280;64024;55.820;37.574;2023-04-01T18:07:16;98006.78;;;18.74;46.69
75447;BME280;64024;55.820;37.574;2023-04-01T18:13:06;98012.38;;;18.78;46.95
75447;BME280;64024;55.820;37.574;2023-04-01T18:15:46;98020.19;;;18.79;46.67
75447;BME280;64024;55.820;37.574;2023-04-01T18:24:21;98016.59;;;18.84;46.93
75447;BME280;64024;55.820;37.574;2023-04-01T18:27:03;98018.19;;;18.85;46.87
75447;BME280;64024;55.820;37.574;2023-04-01T18:29:53;98028.16;;;18.84;46.97
75447;BME280;64024;55.820;37.574;2023-04-01T18:32:32;98032.19;;;18.87;47.08
75447;BME280;64024;55.820;37.574;2023-04-01T18:35:21;98036.97;;;18.90;46.98
75447;BME280;64024;55.820;37.574;2023-04-01T18:38:12;98039.88;;;18.94;47.08
75447;BME280;64024;55.820;37.574;2023-04-01T18:46:39;98065.34;;;19.01;47.19
75447;BME280;64024;55.820;37.574;2023-04-01T18:49:21;98060.25;;;19.00;47.36
75447;BME280;64024;55.820;37.574;2023-04-01T18:52:15;98068.53;;;19.03;47.44
75447;BME280;64024;55.820;37.574;2023-04-01T18:55:14;98070.44;;;19.03;47.35
75447;BME280;64024;55.820;37.574;2023-04-01T18:57:51;98065.03;;;19.03;47.32
75447;BME280;64024;55.820;37.574;2023-04-01T19:00:26;98062.34;;;19.03;47.23
75447;BME280;64024;55.820;37.574;2023-04-01T19:05:34;98058.06;;;19.02;46.93
75447;BME280;64024;55.820;37.574;2023-04-01T19:08:30;98062.88;;;19.05;46.91
75447;BME280;64024;55.820;37.574;2023-04-01T19:11:24;98062.88;;;19.05;46.81
75447;BME280;64024;55.820;37.574;2023-04-01T19:22:27;98062.88;;;19.05;46.54
75447;BME280;64024;55.820;37.574;2023-04-01T19:25:09;98064.78;;;19.04;46.61
75447;BME280;64024;55.820;37.574;2023-04-01T19:27:46;98074.75;;;19.04;46.65
75447;BME280;64024;55.820;37.574;2023-04-01T19:33:03;98080.13;;;19.04;46.43
75447;BME280;64024;55.820;37.574;2023-04-01T19:35:44;98078.22;;;19.04;46.44
75447;BME280;64024;55.820;37.574;2023-04-01T19:38:37;98087.09;;;19.05;46.58
75447;BME280;64024;55.820;37.574;2023-04-01T19:41:26;98086.81;;;19.06;46.39
75447;BME280;64024;55.820;37.574;2023-04-01T19:54:50;98111.34;;;19.05;46.69
75447;BME280;64024;55.820;37.574;2023-04-01T20:02:43;98115.34;;;19.07;46.97
75447;BME280;64024;55.820;37.574;2023-04-01T20:05:34;98119.91;;;19.07;47.15
75447;BME280;64024;55.820;37.574;2023-04-01T20:19:24;98117.44;;;19.10;47.40
75447;BME280;64024;55.820;37.574;2023-04-01T20:21:57;98114.75;;;19.10;47.45
75447;BME280;64024;55.820;37.574;2023-04-01T20:32:32;98118.25;;;19.11;47.42
75447;BME280;64024;55.820;37.574;2023-04-01T20:35:13;98111.78;;;19.12;47.68
75447;BME280;64024;55.820;37.574;2023-04-01T20:38:15;98110.97;;;19.11;47.41
75447;BME280;64024;55.820;37.574;2023-04-01T20:40:51;98108.78;;;19.13;47.57
75447;BME280;64024;55.820;37.574;2023-04-01T20:57:21;98110.38;;;19.15;47.74
75447;BME280;64024;55.820;37.574;2023-04-01T21:08:23;98114.09;;;19.19;48.07
75447;BME280;64024;55.820;37.574;2023-04-01T21:14:27;98123.91;;;19.28;47.14
75447;BME280;64024;55.820;37.574;2023-04-01T21:38:35;98156.69;;;19.17;46.76
75447;BME280;64024;55.820;37.574;2023-04-01T21:43:58;98155.38;;;19.14;46.76
75447;BME280;64024;55.820;37.574;2023-04-01T22:01:07;98155.81;;;19.02;46.05
75447;BME280;64024;55.820;37.574;2023-04-01T22:09:38;98155.06;;;18.97;45.92
75447;BME280;64024;55.820;37.574;2023-04-01T22:14:52;98161.03;;;18.94;46.07
75447;BME280;64024;55.820;37.574;2023-04-01T22:17:42;98167.22;;;18.94;46.49
75447;BME280;64024;55.820;37.574;2023-04-01T22:25:42;98154.84;;;18.93;46.69
75447;BME280;64024;55.820;37.574;2023-04-01T22:31:25;98156.19;;;18.96;46.58
75447;BME280;64024;55.820;37.574;2023-04-01T22:34:27;98151.84;;;18.95;46.99
75447;BME280;64024;55.820;37.574;2023-04-01T22:43:36;98150.50;;;18.97;47.17
75447;BME280;64024;55.820;37.574;2023-04-01T22:48:45;98155.34;;;18.95;47.02
75447;BME280;64024;55.820;37.574;2023-04-01T22:54:04;98163.66;;;18.99;47.05
75447;BME280;64024;55.820;37.574;2023-04-01T22:56:37;98169.03;;;18.99;46.69
75447;BME280;64024;55.820;37.574;2023-04-01T22:59:46;98177.91;;;18.99;45.99
75447;BME280;64024;55.820;37.574;2023-04-01T23:02:45;98172.31;;;18.96;45.80
75447;BME280;64024;55.820;37.574;2023-04-01T23:05:13;98173.69;;;18.93;45.56
75447;BME280;64024;55.820;37.574;2023-04-01T23:07:51;98178.84;;;18.90;45.13
75447;BME280;64024;55.820;37.574;2023-04-01T23:12:52;98177.38;;;18.78;45.02
75447;BME280;64024;55.820;37.574;2023-04-01T23:15:20;98172.84;;;18.74;44.93
75447;BME280;64024;55.820;37.574;2023-04-01T23:26:22;98169.63;;;18.48;44.46
75447;BME280;64024;55.820;37.574;2023-04-01T23:28:55;98183.69;;;18.39;44.68
75447;BME280;64024;55.820;37.574;2023-04-01T23:37:21;98176.34;;;18.21;44.91
75447;BME280;64024;55.820;37.574;2023-04-01T23:39:44;98174.78;;;18.15;45.03
75447;BME280;64024;55.820;37.574;2023-04-01T23:42:21;98170.53;;;18.09;44.99
75447;BME280;64024;55.820;37.574;2023-04-01T23:44:49;98174.34;;;18.03;45.08
75447;BME280;64024;55.820;37.574;2023-04-01T23:47:26;98178.69;;;17.99;45.19
75447;BME280;64024;55.820;37.574;2023-04-01T23:50:03;98184.13;;;17.94;45.21
75447;BME280;64024;55.820;37.574;2023-04-01T23:52:46;98180.38;;;17.89;45.20